sensor_id;sensor_type;location;lat;lon;timestamp;P1;durP1;ratioP1;P2;durP2;ratioP2
24301;SDS011;12421;49.732;20.078;2022-09-25T00:00:21;22.85;;;14.78;;
24301;SDS011;12421;49.732;20.078;2022-09-25T00:10:24;26.37;;;15.68;;
24301;SDS011;12421;49.732;20.078;2022-09-25T00:20:28;23.22;;;14.85;;
24301;SDS011;12421;49.732;20.078;2022-09-25T00:30:30;24.95;;;14.80;;
24301;SDS011;12421;49.732;20.078;2022-09-25T00:40:32;22.10;;;12.53;;
24301;SDS011;12421;49.732;20.078;2022-09-25T00:50:38;16.62;;;11.93;;
24301;SDS011;12421;49.732;20.078;2022-09-25T01:00:52;19.82;;;13.85;;
24301;SDS011;12421;49.732;20.078;2022-09-25T01:10:55;18.67;;;12.13;;
24301;SDS011;12421;49.732;20.078;2022-09-25T01:31:09;18.12;;;11.75;;
24301;SDS011;12421;49.732;20.078;2022-09-25T01:51:29;12.95;;;9.25;;
24301;SDS011;12421;49.732;20.078;2022-09-25T02:01:39;17.35;;;9.40;;
24301;SDS011;12421;49.732;20.078;2022-09-25T02:11:45;16.48;;;9.50;;
24301;SDS011;12421;49.732;20.078;2022-09-25T02:32:07;15.40;;;9.75;;
24301;SDS011;12421;49.732;20.078;2022-09-25T02:52:36;11.73;;;8.28;;
24301;SDS011;12421;49.732;20.078;2022-09-25T03:12:44;15.55;;;9.38;;
24301;SDS011;12421;49.732;20.078;2022-09-25T03:22:46;14.47;;;8.50;;
24301;SDS011;12421;49.732;20.078;2022-09-25T03:32:48;14.35;;;9.55;;
24301;SDS011;12421;49.732;20.078;2022-09-25T03:42:50;12.43;;;9.03;;
24301;SDS011;12421;49.732;20.078;2022-09-25T03:52:52;15.75;;;8.70;;
24301;SDS011;12421;49.732;20.078;2022-09-25T04:02:54;13.40;;;9.55;;
24301;SDS011;12421;49.732;20.078;2022-09-25T04:12:57;16.10;;;11.73;;
24301;SDS011;12421;49.732;20.078;2022-09-25T04:23:00;17.12;;;10.70;;
24301;SDS011;12421;49.732;20.078;2022-09-25T04:33:02;14.85;;;9.30;;
24301;SDS011;12421;49.732;20.078;2022-09-25T04:43:22;12.93;;;9.00;;
24301;SDS011;12421;49.732;20.078;2022-09-25T04:53:25;11.28;;;8.55;;
24301;SDS011;12421;49.732;20.078;2022-09-25T05:03:29;14.58;;;9.65;;
24301;SDS011;12421;49.732;20.078;2022-09-25T05:13:31;12.05;;;9.10;;
24301;SDS011;12421;49.732;20.078;2022-09-25T05:23:36;20.68;;;12.15;;
24301;SDS011;12421;49.732;20.078;2022-09-25T05:33:39;17.23;;;9.60;;
24301;SDS011;12421;49.732;20.078;2022-09-25T05:43:42;17.25;;;10.30;;
24301;SDS011;12421;49.732;20.078;2022-09-25T06:03:50;11.25;;;8.55;;
24301;SDS011;12421;49.732;20.078;2022-09-25T06:13:53;10.68;;;8.38;;
24301;SDS011;12421;49.732;20.078;2022-09-25T06:23:58;9.83;;;7.37;;
24301;SDS011;12421;49.732;20.078;2022-09-25T06:34:00;13.30;;;6.45;;
24301;SDS011;12421;49.732;20.078;2022-09-25T06:44:04;11.63;;;6.65;;
24301;SDS011;12421;49.732;20.078;2022-09-25T06:54:08;9.35;;;7.22;;
24301;SDS011;12421;49.732;20.078;2022-09-25T07:04:10;7.80;;;5.58;;
24301;SDS011;12421;49.732;20.078;2022-09-25T07:14:13;10.40;;;5.83;;
24301;SDS011;12421;49.732;20.078;2022-09-25T07:24:15;8.03;;;5.78;;
24301;SDS011;12421;49.732;20.078;2022-09-25T07:34:17;7.17;;;5.55;;
24301;SDS011;12421;49.732;20.078;2022-09-25T07:44:19;10.85;;;5.95;;
24301;SDS011;12421;49.732;20.078;2022-09-25T07:54:22;7.35;;;4.83;;
24301;SDS011;12421;49.732;20.078;2022-09-25T08:04:25;6.87;;;4.95;;
24301;SDS011;12421;49.732;20.078;2022-09-25T08:14:27;9.73;;;5.35;;
24301;SDS011;12421;49.732;20.078;2022-09-25T08:24:29;7.63;;;4.90;;
24301;SDS011;12421;49.732;20.078;2022-09-25T08:34:31;8.48;;;4.65;;
24301;SDS011;12421;49.732;20.078;2022-09-25T08:44:35;6.75;;;5.22;;
24301;SDS011;12421;49.732;20.078;2022-09-25T08:54:44;9.15;;;5.47;;
24301;SDS011;12421;49.732;20.078;2022-09-25T09:04:50;5.58;;;4.67;;
24301;SDS011;12421;49.732;20.078;2022-09-25T09:14:57;6.75;;;5.33;;
24301;SDS011;12421;49.732;20.078;2022-09-25T09:45:49;4.62;;;3.77;;
24301;SDS011;12421;49.732;20.078;2022-09-25T09:56:09;5.33;;;3.77;;
24301;SDS011;12421;49.732;20.078;2022-09-25T10:06:24;7.95;;;3.52;;
24301;SDS011;12421;49.732;20.078;2022-09-25T10:16:30;9.07;;;3.77;;
24301;SDS011;12421;49.732;20.078;2022-09-25T10:26:35;5.83;;;3.47;;
24301;SDS011;12421;49.732;20.078;2022-09-25T10:36:49;5.15;;;3.25;;
24301;SDS011;12421;49.732;20.078;2022-09-25T10:46:53;6.22;;;3.45;;
24301;SDS011;12421;49.732;20.078;2022-09-25T10:57:34;4.80;;;3.87;;
24301;SDS011;12421;49.732;20.078;2022-09-25T11:07:25;6.30;;;3.40;;
24301;SDS011;12421;49.732;20.078;2022-09-25T11:17:38;6.08;;;3.85;;
24301;SDS011;12421;49.732;20.078;2022-09-25T11:27:57;11.35;;;4.90;;
24301;SDS011;12421;49.732;20.078;2022-09-25T11:49:04;6.53;;;4.50;;
24301;SDS011;12421;49.732;20.078;2022-09-25T11:59:19;4.75;;;3.33;;
24301;SDS011;12421;49.732;20.078;2022-09-25T12:20:48;5.33;;;3.23;;
24301;SDS011;12421;49.732;20.078;2022-09-25T12:30:35;6.55;;;4.03;;
24301;SDS011;12421;49.732;20.078;2022-09-25T12:51:19;7.45;;;5.60;;
24301;SDS011;12421;49.732;20.078;2022-09-25T13:01:30;23.83;;;9.03;;
24301;SDS011;12421;49.732;20.078;2022-09-25T13:11:45;10.28;;;6.25;;
24301;SDS011;12421;49.732;20.078;2022-09-25T13:22:02;14.65;;;9.93;;
24301;SDS011;12421;49.732;20.078;2022-09-25T13:32:14;11.87;;;9.77;;
24301;SDS011;12421;49.732;20.078;2022-09-25T13:42:35;8.08;;;5.70;;
24301;SDS011;12421;49.732;20.078;2022-09-25T14:02:59;10.48;;;7.12;;
24301;SDS011;12421;49.732;20.078;2022-09-25T14:13:03;12.93;;;7.80;;
24301;SDS011;12421;49.732;20.078;2022-09-25T14:44:19;10.58;;;7.85;;
24301;SDS011;12421;49.732;20.078;2022-09-25T14:54:36;10.58;;;6.85;;
24301;SDS011;12421;49.732;20.078;2022-09-25T15:04:43;13.03;;;8.30;;
24301;SDS011;12421;49.732;20.078;2022-09-25T15:25:07;9.35;;;5.55;;
24301;SDS011;12421;49.732;20.078;2022-09-25T15:45:40;13.18;;;8.83;;
24301;SDS011;12421;49.732;20.078;2022-09-25T15:55:46;14.25;;;9.88;;
24301;SDS011;12421;49.732;20.078;2022-09-25T16:05:52;35.13;;;18.02;;
24301;SDS011;12421;49.732;20.078;2022-09-25T16:15:57;32.27;;;14.60;;
24301;SDS011;12421;49.732;20.078;2022-09-25T16:26:14;26.57;;;16.23;;
24301;SDS011;12421;49.732;20.078;2022-09-25T16:36:20;20.45;;;13.38;;
24301;SDS011;12421;49.732;20.078;2022-09-25T16:46:23;15.08;;;10.25;;
24301;SDS011;12421;49.732;20.078;2022-09-25T16:56:28;20.57;;;13.62;;
24301;SDS011;12421;49.732;20.078;2022-09-25T17:16:37;19.92;;;13.25;;
24301;SDS011;12421;49.732;20.078;2022-09-25T17:26:40;20.95;;;15.10;;
24301;SDS011;12421;49.732;20.078;2022-09-25T17:36:43;13.43;;;9.70;;
24301;SDS011;12421;49.732;20.078;2022-09-25T17:46:46;26.65;;;17.15;;
24301;SDS011;12421;49.732;20.078;2022-09-25T17:56:49;21.12;;;13.45;;
24301;SDS011;12421;49.732;20.078;2022-09-25T18:06:51;18.93;;;14.07;;
24301;SDS011;12421;49.732;20.078;2022-09-25T18:16:57;16.95;;;13.18;;
24301;SDS011;12421;49.732;20.078;2022-09-25T18:27:00;19.87;;;13.58;;
24301;SDS011;12421;49.732;20.078;2022-09-25T18:37:04;22.02;;;14.85;;
24301;SDS011;12421;49.732;20.078;2022-09-25T18:47:07;19.55;;;15.15;;
24301;SDS011;12421;49.732;20.078;2022-09-25T18:57:11;21.73;;;14.47;;
24301;SDS011;12421;49.732;20.078;2022-09-25T19:07:17;21.93;;;16.10;;
24301;SDS011;12421;49.732;20.078;2022-09-25T19:17:20;22.02;;;16.12;;
24301;SDS011;12421;49.732;20.078;2022-09-25T19:27:22;26.25;;;15.40;;
24301;SDS011;12421;49.732;20.078;2022-09-25T19:37:25;22.22;;;17.07;;
24301;SDS011;12421;49.732;20.078;2022-09-25T19:47:30;20.52;;;15.30;;
24301;SDS011;12421;49.732;20.078;2022-09-25T19:57:35;25.02;;;17.10;;
24301;SDS011;12421;49.732;20.078;2022-09-25T20:07:40;22.43;;;16.10;;
24301;SDS011;12421;49.732;20.078;2022-09-25T20:17:42;24.05;;;19.37;;
24301;SDS011;12421;49.732;20.078;2022-09-25T20:27:48;26.30;;;17.90;;
24301;SDS011;12421;49.732;20.078;2022-09-25T20:37:53;27.73;;;19.80;;
24301;SDS011;12421;49.732;20.078;2022-09-25T20:47:56;25.92;;;18.95;;
24301;SDS011;12421;49.732;20.078;2022-09-25T20:57:58;34.00;;;22.15;;
24301;SDS011;12421;49.732;20.078;2022-09-25T21:08:03;36.20;;;24.40;;
24301;SDS011;12421;49.732;20.078;2022-09-25T21:18:06;40.78;;;23.83;;
24301;SDS011;12421;49.732;20.078;2022-09-25T21:28:08;36.40;;;24.15;;
24301;SDS011;12421;49.732;20.078;2022-09-25T21:38:10;32.03;;;22.22;;
24301;SDS011;12421;49.732;20.078;2022-09-25T21:48:13;29.50;;;21.77;;
24301;SDS011;12421;49.732;20.078;2022-09-25T21:58:15;21.27;;;16.62;;
24301;SDS011;12421;49.732;20.078;2022-09-25T22:08:17;22.93;;;17.12;;
24301;SDS011;12421;49.732;20.078;2022-09-25T22:18:19;25.50;;;18.48;;
24301;SDS011;12421;49.732;20.078;2022-09-25T22:28:21;21.05;;;17.10;;
24301;SDS011;12421;49.732;20.078;2022-09-25T22:38:24;24.43;;;17.83;;
24301;SDS011;12421;49.732;20.078;2022-09-25T22:48:26;24.20;;;17.95;;
24301;SDS011;12421;49.732;20.078;2022-09-25T22:58:29;22.25;;;17.60;;
24301;SDS011;12421;49.732;20.078;2022-09-25T23:08:31;19.90;;;15.95;;
24301;SDS011;12421;49.732;20.078;2022-09-25T23:18:34;21.83;;;16.53;;
24301;SDS011;12421;49.732;20.078;2022-09-25T23:28:38;17.32;;;14.80;;
24301;SDS011;12421;49.732;20.078;2022-09-25T23:38:42;17.65;;;15.05;;
24301;SDS011;12421;49.732;20.078;2022-09-25T23:48:45;20.30;;;13.88;;
24301;SDS011;12421;49.732;20.078;2022-09-25T23:58:49;17.90;;;13.30;;
